createdAt,value
2023-02-08T00:01:16.817Z,75.65
2023-02-08T00:03:45.704Z,75.50
2023-02-08T00:06:15.400Z,75.51
2023-02-08T00:08:44.389Z,75.82
2023-02-08T00:11:12.673Z,76.06
2023-02-08T00:13:42.845Z,76.27
2023-02-08T00:16:12.368Z,75.91
2023-02-08T00:18:42.702Z,76.40
2023-02-08T00:21:12.275Z,76.00
2023-02-08T00:23:40.532Z,76.22
2023-02-08T00:26:08.929Z,76.57
2023-02-08T00:28:37.083Z,75.84
2023-02-08T00:31:06.016Z,75.82
2023-02-08T00:33:34.285Z,76.77
2023-02-08T00:36:05.958Z,76.46
2023-02-08T00:38:34.449Z,76.76
2023-02-08T00:41:02.581Z,76.64
2023-02-08T00:43:30.563Z,77.04
2023-02-08T00:46:00.100Z,76.95
2023-02-08T00:48:28.804Z,76.24
2023-02-08T00:51:06.231Z,76.92
2023-02-08T00:53:37.234Z,75.80
2023-02-08T00:56:07.521Z,76.42
2023-02-08T00:58:36.073Z,76.62
2023-02-08T01:01:05.876Z,75.82
2023-02-08T01:03:35.401Z,76.34
2023-02-08T01:06:06.987Z,75.34
2023-02-08T01:08:35.346Z,76.03
2023-02-08T01:11:05.155Z,76.73
2023-02-08T01:13:33.399Z,75.47
2023-02-08T01:16:07.900Z,76.33
2023-02-08T01:18:36.048Z,75.85
2023-02-08T01:21:10.431Z,75.80
2023-02-08T01:23:40.805Z,75.08
2023-02-08T01:26:10.079Z,74.86
2023-02-08T01:28:39.928Z,75.90
2023-02-08T01:31:09.015Z,74.89
2023-02-08T01:33:37.636Z,75.30
2023-02-08T01:36:07.198Z,74.99
2023-02-08T01:38:37.774Z,75.18
2023-02-08T01:41:07.694Z,75.67
2023-02-08T01:43:56.579Z,76.60
2023-02-08T01:46:25.985Z,75.88
2023-02-08T01:48:55.415Z,76.31
2023-02-08T01:51:26.915Z,75.73
2023-02-08T01:53:57.188Z,76.09
2023-02-08T01:56:33.274Z,76.08
2023-02-08T01:59:04.727Z,76.34
2023-02-08T02:01:35.006Z,76.51
2023-02-08T02:04:04.543Z,76.45
2023-02-08T02:06:36.343Z,76.21
2023-02-08T02:09:11.453Z,75.37
2023-02-08T02:14:48.549Z,76.04
2023-02-08T02:17:21.535Z,75.78
2023-02-08T02:19:57.425Z,75.05
2023-02-08T02:22:46.706Z,75.02
2023-02-08T02:25:38.404Z,75.28
2023-02-08T02:28:53.917Z,74.44
2023-02-08T02:32:00.690Z,74.83
2023-02-08T02:34:38.727Z,74.94
2023-02-08T02:37:17.003Z,73.81
2023-02-08T02:39:58.391Z,74.35
2023-02-08T02:42:53.638Z,74.77
2023-02-08T02:45:32.367Z,74.72
2023-02-08T02:48:07.630Z,75.58
2023-02-08T02:50:42.599Z,74.82
2023-02-08T02:53:19.635Z,74.95
2023-02-08T02:55:52.400Z,75.03
2023-02-08T02:58:24.926Z,75.22
2023-02-08T03:00:54.140Z,75.23
2023-02-08T03:03:26.164Z,75.89
2023-02-08T03:06:00.942Z,75.52
2023-02-08T03:08:50.052Z,75.53
2023-02-08T03:11:22.893Z,75.45
2023-02-08T03:14:20.603Z,75.53
2023-02-08T03:17:07.745Z,75.08
2023-02-08T03:19:44.855Z,75.28
2023-02-08T03:22:18.827Z,75.50
2023-02-08T03:24:56.359Z,75.58
2023-02-08T03:27:34.257Z,75.83
2023-02-08T03:30:07.694Z,76.13
2023-02-08T03:32:42.999Z,76.09
2023-02-08T03:35:17.949Z,75.70
2023-02-08T03:37:51.363Z,75.91
2023-02-08T03:40:24.004Z,75.94
2023-02-08T03:42:55.376Z,75.52
2023-02-08T03:45:26.384Z,75.76
2023-02-08T03:47:59.633Z,75.12
2023-02-08T03:50:32.556Z,75.22
2023-02-08T03:53:01.550Z,75.51
2023-02-08T03:55:33.839Z,76.14
2023-02-08T03:58:10.341Z,74.85
2023-02-08T04:00:43.898Z,75.94
2023-02-08T04:03:17.018Z,75.23
2023-02-08T04:05:47.664Z,75.42
2023-02-08T04:08:16.014Z,74.85
2023-02-08T04:10:43.895Z,76.06
2023-02-08T04:13:12.803Z,75.87
2023-02-08T04:15:44.789Z,75.65
2023-02-08T04:18:12.760Z,75.69
2023-02-08T04:20:41.056Z,75.40
2023-02-08T04:23:11.648Z,75.39
2023-02-08T04:25:40.081Z,75.33
2023-02-08T04:28:07.880Z,76.34
2023-02-08T04:30:36.294Z,76.34
2023-02-08T04:33:04.886Z,75.00
2023-02-08T04:35:32.810Z,75.28
2023-02-08T04:38:01.924Z,75.76
2023-02-08T04:40:31.917Z,75.33
2023-02-08T04:43:02.425Z,75.78
2023-02-08T04:45:32.169Z,75.72
2023-02-08T04:48:01.549Z,75.98
2023-02-08T04:50:30.622Z,76.14
2023-02-08T04:52:59.568Z,75.30
2023-02-08T04:55:28.431Z,75.74
2023-02-08T04:57:57.827Z,75.66
2023-02-08T05:00:25.696Z,76.06
2023-02-08T05:02:54.464Z,75.91
2023-02-08T05:05:23.444Z,75.48
2023-02-08T05:07:51.737Z,74.83
2023-02-08T05:10:19.919Z,76.02
2023-02-08T05:12:47.715Z,75.85
2023-02-08T05:15:18.765Z,75.28
2023-02-08T05:17:46.774Z,74.38
2023-02-08T05:20:15.668Z,75.29
2023-02-08T05:22:43.959Z,75.83
2023-02-08T05:25:12.125Z,75.24
2023-02-08T05:27:40.200Z,76.10
2023-02-08T05:30:08.991Z,75.42
2023-02-08T05:32:39.734Z,74.78
2023-02-08T05:35:10.025Z,75.20
2023-02-08T05:37:38.642Z,75.68
2023-02-08T05:40:09.080Z,74.37
2023-02-08T05:42:37.644Z,75.32
2023-02-08T05:45:07.320Z,75.59
2023-02-08T05:47:35.839Z,75.84
2023-02-08T05:50:05.797Z,75.00
2023-02-08T05:52:33.683Z,75.20
2023-02-08T05:55:01.592Z,75.63
2023-02-08T05:57:31.384Z,75.19
2023-02-08T05:59:59.790Z,74.98
2023-02-08T06:02:27.719Z,75.18
2023-02-08T06:04:56.576Z,75.62
2023-02-08T06:07:26.433Z,74.96
2023-02-08T06:09:54.268Z,74.56
2023-02-08T06:12:22.080Z,74.40
2023-02-08T06:14:49.958Z,74.15
2023-02-08T06:17:18.087Z,74.09
2023-02-08T06:19:47.015Z,75.37
2023-02-08T06:22:16.593Z,74.81
2023-02-08T06:24:45.785Z,74.70
2023-02-08T06:27:14.477Z,75.61
2023-02-08T06:29:42.316Z,75.63
2023-02-08T06:32:11.333Z,75.83
2023-02-08T06:34:40.117Z,75.26
2023-02-08T06:37:10.400Z,74.77
2023-02-08T06:39:39.166Z,76.28
2023-02-08T06:42:08.995Z,75.72
2023-02-08T06:44:40.462Z,76.37
2023-02-08T06:47:12.419Z,76.48
2023-02-08T06:49:41.677Z,76.57
2023-02-08T06:52:10.756Z,75.79
2023-02-08T06:54:39.700Z,75.67
2023-02-08T06:57:09.094Z,75.75
2023-02-08T06:59:37.259Z,75.33
2023-02-08T07:02:05.292Z,76.03
2023-02-08T07:04:33.944Z,75.63
2023-02-08T07:07:03.021Z,75.93
2023-02-08T07:09:31.826Z,76.37
2023-02-08T07:11:59.917Z,76.01
2023-02-08T07:14:29.159Z,76.43
2023-02-08T07:16:58.036Z,76.66
2023-02-08T07:19:27.437Z,77.35
2023-02-08T07:21:58.023Z,75.64
2023-02-08T07:24:25.856Z,75.58
2023-02-08T07:26:54.138Z,74.93
2023-02-08T07:29:22.611Z,72.81
2023-02-08T07:31:52.785Z,74.09
2023-02-08T07:34:21.940Z,71.23
2023-02-08T07:36:49.853Z,68.42
2023-02-08T07:39:17.749Z,68.29
2023-02-08T07:41:47.117Z,66.27
2023-02-08T07:44:15.261Z,65.95
2023-02-08T07:46:43.383Z,65.43
2023-02-08T07:49:12.946Z,63.92
2023-02-08T07:51:41.776Z,63.93
2023-02-08T07:54:09.636Z,62.39
2023-02-08T07:56:37.521Z,62.56
2023-02-08T07:59:05.397Z,61.84
2023-02-08T08:01:33.723Z,60.04
2023-02-08T08:04:02.603Z,60.87
2023-02-08T08:06:31.900Z,60.29
2023-02-08T08:08:59.808Z,59.51
2023-02-08T08:11:27.741Z,59.84
2023-02-08T08:13:55.936Z,59.52
2023-02-08T08:16:25.287Z,58.09
2023-02-08T08:18:53.193Z,58.91
2023-02-08T08:21:21.148Z,56.40
2023-02-08T08:23:52.035Z,56.63
2023-02-08T08:26:22.572Z,56.15
2023-02-08T08:28:52.723Z,56.89
2023-02-08T08:31:22.883Z,56.58
2023-02-08T08:33:51.712Z,56.23
2023-02-08T08:36:20.296Z,56.34
2023-02-08T08:38:50.404Z,55.07
2023-02-08T08:41:18.994Z,56.49
2023-02-08T08:43:47.359Z,54.67
2023-02-08T08:46:16.632Z,55.08
2023-02-08T08:48:45.073Z,54.90
2023-02-08T08:51:14.155Z,54.36
2023-02-08T08:53:42.612Z,53.70
2023-02-08T08:56:12.116Z,53.19
2023-02-08T08:58:39.979Z,52.92
2023-02-08T09:01:07.835Z,52.54
2023-02-08T09:03:36.111Z,52.35
2023-02-08T09:06:04.082Z,51.83
2023-02-08T09:08:33.410Z,51.73
2023-02-08T09:11:06.205Z,51.82
2023-02-08T09:13:36.965Z,52.39
2023-02-08T09:16:09.715Z,50.95
2023-02-08T09:18:38.048Z,51.41
2023-02-08T09:21:11.110Z,50.36
2023-02-08T09:23:39.745Z,50.08
2023-02-08T09:26:10.929Z,50.20
2023-02-08T09:28:40.721Z,50.20
2023-02-08T09:31:09.230Z,49.93
2023-02-08T09:33:37.142Z,49.67
2023-02-08T09:36:05.348Z,49.31
2023-02-08T09:38:34.918Z,49.68
2023-02-08T09:41:20.496Z,49.81
2023-02-08T09:44:02.135Z,48.79
2023-02-08T09:46:35.908Z,48.82
2023-02-08T09:49:08.449Z,49.46
2023-02-08T09:51:41.032Z,48.98
2023-02-08T09:54:16.453Z,48.85
2023-02-08T09:56:46.160Z,48.74
2023-02-08T09:59:21.452Z,49.74
2023-02-08T10:01:52.582Z,50.03
2023-02-08T10:04:29.662Z,50.04
2023-02-08T10:06:58.328Z,50.06
2023-02-08T10:09:27.982Z,50.31
2023-02-08T10:12:08.083Z,50.08
2023-02-08T10:14:57.043Z,49.71
2023-02-08T10:17:43.538Z,49.64
2023-02-08T10:20:25.194Z,49.21
2023-02-08T10:23:04.062Z,49.03
2023-02-08T10:25:45.345Z,48.80
2023-02-08T10:28:31.421Z,49.69
2023-02-08T10:31:09.891Z,50.51
2023-02-08T10:33:47.900Z,49.72
2023-02-08T10:36:21.975Z,49.87
2023-02-08T10:38:54.512Z,49.90
2023-02-08T10:41:27.120Z,49.82
2023-02-08T10:44:06.011Z,49.59
2023-02-08T10:46:41.956Z,49.18
2023-02-08T10:49:17.911Z,49.24
2023-02-08T10:51:47.241Z,48.30
2023-02-08T10:54:17.762Z,48.57
2023-02-08T10:56:49.200Z,49.46
2023-02-08T10:59:21.117Z,49.43
2023-02-08T11:01:51.914Z,49.46
2023-02-08T11:04:20.688Z,49.43
2023-02-08T11:06:51.771Z,49.75
2023-02-08T11:09:26.578Z,49.94
2023-02-08T11:11:55.586Z,49.97
2023-02-08T11:14:40.999Z,49.98
2023-02-08T11:17:26.958Z,49.46
2023-02-08T11:19:55.175Z,49.41
2023-02-08T11:22:25.632Z,49.89
2023-02-08T11:25:00.125Z,50.17
2023-02-08T11:27:35.479Z,49.48
2023-02-08T11:30:23.308Z,49.69
2023-02-08T11:33:22.778Z,48.86
2023-02-08T11:36:01.809Z,49.62
2023-02-08T11:38:32.664Z,49.13
2023-02-08T11:41:05.548Z,49.69
2023-02-08T11:43:36.570Z,50.07
2023-02-08T11:46:08.011Z,50.02
2023-02-08T11:48:43.526Z,49.45
2023-02-08T11:51:15.597Z,49.40
2023-02-08T11:53:49.152Z,49.44
2023-02-08T11:56:20.890Z,49.57
2023-02-08T11:59:03.102Z,49.28
2023-02-08T12:01:34.552Z,48.27
2023-02-08T12:04:06.559Z,49.33
2023-02-08T12:07:03.266Z,49.40
2023-02-08T12:09:49.652Z,49.58
2023-02-08T12:12:29.100Z,48.85
2023-02-08T12:15:07.157Z,48.55
2023-02-08T12:17:56.173Z,48.35
2023-02-08T12:20:42.513Z,48.29
2023-02-08T12:23:45.744Z,47.70
2023-02-08T12:26:21.094Z,46.39
2023-02-08T12:29:10.974Z,46.94
2023-02-08T12:31:58.402Z,47.12
2023-02-08T12:34:40.702Z,46.47
2023-02-08T12:37:42.510Z,46.83
2023-02-08T12:40:41.813Z,46.99
2023-02-08T12:43:21.521Z,45.64
2023-02-08T12:46:09.339Z,45.12
2023-02-08T12:49:06.539Z,45.70
2023-02-08T12:51:44.162Z,45.17
2023-02-08T12:54:17.396Z,45.93
2023-02-08T12:57:01.581Z,45.76
2023-02-08T12:59:35.117Z,45.57
2023-02-08T13:02:16.963Z,45.86
2023-02-08T13:04:48.688Z,45.10
2023-02-08T13:07:22.137Z,45.49
2023-02-08T13:10:02.546Z,45.79
2023-02-08T13:12:33.724Z,46.03
2023-02-08T13:15:11.864Z,45.91
2023-02-08T13:17:49.430Z,46.58
2023-02-08T13:20:31.010Z,47.05
2023-02-08T13:23:03.621Z,46.97
2023-02-08T13:25:37.154Z,46.99
2023-02-08T13:28:09.100Z,46.11
2023-02-08T13:30:40.283Z,46.12
2023-02-08T13:33:18.106Z,46.41
2023-02-08T13:35:51.484Z,47.82
2023-02-08T13:38:28.387Z,46.21
2023-02-08T13:41:07.174Z,46.55
2023-02-08T13:43:42.091Z,46.09
2023-02-08T13:46:12.069Z,46.86
2023-02-08T13:48:48.023Z,47.05
2023-02-08T13:52:02.303Z,47.13
2023-02-08T13:54:30.322Z,47.71
2023-02-08T13:57:01.327Z,47.02
2023-02-08T13:59:35.622Z,47.69
2023-02-08T14:02:22.798Z,47.23
2023-02-08T14:04:53.997Z,48.07
2023-02-08T14:07:41.669Z,48.33
2023-02-08T14:10:23.984Z,48.42
2023-02-08T14:12:59.956Z,48.65
2023-02-08T14:15:33.820Z,48.88
2023-02-08T14:18:02.936Z,48.78
2023-02-08T14:20:39.325Z,49.26
2023-02-08T14:23:21.412Z,49.58
2023-02-08T14:25:51.874Z,49.10
2023-02-08T14:28:31.983Z,49.62
2023-02-08T14:31:02.435Z,50.28
2023-02-08T14:33:35.101Z,50.15
2023-02-08T14:36:06.239Z,49.72
2023-02-08T14:39:08.590Z,50.54
2023-02-08T14:41:51.582Z,49.99
2023-02-08T14:44:55.969Z,50.78
2023-02-08T14:47:54.920Z,50.82
2023-02-08T14:50:30.176Z,50.65
2023-02-08T14:53:04.213Z,50.72
2023-02-08T14:55:38.466Z,50.76
2023-02-08T14:58:08.557Z,51.44
2023-02-08T15:00:38.983Z,51.20
2023-02-08T15:03:15.963Z,51.13
2023-02-08T15:05:57.859Z,51.60
2023-02-08T15:08:26.074Z,51.43
2023-02-08T15:10:53.957Z,52.56
2023-02-08T15:13:24.827Z,51.72
2023-02-08T15:15:55.958Z,52.06
2023-02-08T15:18:29.436Z,51.96
2023-02-08T15:21:04.768Z,52.18
2023-02-08T15:23:32.893Z,52.47
2023-02-08T15:26:05.228Z,52.73
2023-02-08T15:28:37.791Z,52.67
2023-02-08T15:31:09.315Z,53.49
2023-02-08T15:33:42.530Z,52.89
2023-02-08T15:36:23.335Z,53.15
2023-02-08T15:38:51.261Z,53.49
2023-02-08T15:41:26.231Z,53.30
2023-02-08T15:44:02.209Z,53.20
2023-02-08T15:46:31.788Z,52.97
2023-02-08T15:49:01.301Z,53.46
2023-02-08T15:51:30.579Z,53.71
2023-02-08T15:53:58.651Z,53.41
2023-02-08T15:56:37.545Z,53.34
2023-02-08T15:59:07.943Z,54.24
2023-02-08T16:01:37.012Z,53.81
2023-02-08T16:04:08.412Z,53.34
2023-02-08T16:06:40.114Z,53.01
2023-02-08T16:09:08.310Z,53.34
2023-02-08T16:11:37.748Z,53.00
2023-02-08T16:14:07.819Z,53.24
2023-02-08T16:16:42.646Z,53.35
2023-02-08T16:19:24.190Z,52.85
2023-02-08T16:21:53.394Z,53.40
2023-02-08T16:24:25.115Z,54.09
2023-02-08T16:26:58.313Z,53.67
2023-02-08T16:29:30.338Z,53.65
2023-02-08T16:32:07.913Z,54.19
2023-02-08T16:34:39.793Z,54.22
2023-02-08T16:37:19.690Z,54.50
2023-02-08T16:39:56.052Z,54.68
2023-02-08T16:42:29.924Z,54.81
2023-02-08T16:45:13.923Z,55.04
2023-02-08T16:47:43.177Z,55.17
2023-02-08T16:50:16.109Z,55.34
2023-02-08T16:52:44.187Z,56.19
2023-02-08T16:55:23.192Z,55.90
2023-02-08T16:57:53.085Z,56.52
2023-02-08T17:00:25.189Z,56.31
2023-02-08T17:02:53.499Z,56.98
2023-02-08T17:05:25.039Z,56.67
2023-02-08T17:07:52.948Z,56.90
2023-02-08T17:10:26.482Z,57.29
2023-02-08T17:13:07.036Z,57.51
2023-02-08T17:15:44.575Z,57.72
2023-02-08T17:18:14.931Z,57.93
2023-02-08T17:20:44.979Z,57.78
2023-02-08T17:23:15.686Z,58.47
2023-02-08T17:25:44.470Z,58.44
2023-02-08T17:28:17.484Z,58.54
2023-02-08T17:30:48.657Z,58.46
2023-02-08T17:33:18.909Z,59.22
2023-02-08T17:35:50.592Z,59.19
2023-02-08T17:38:19.446Z,59.51
2023-02-08T17:40:48.304Z,59.01
2023-02-08T17:43:18.068Z,59.44
2023-02-08T17:45:46.687Z,59.78
2023-02-08T17:48:15.020Z,59.76
2023-02-08T17:50:47.795Z,60.09
2023-02-08T17:53:17.700Z,60.14
2023-02-08T17:55:47.780Z,60.49
2023-02-08T17:58:15.675Z,60.67
2023-02-08T18:00:43.500Z,60.94
2023-02-08T18:03:12.070Z,60.88
2023-02-08T18:05:40.042Z,60.92
2023-02-08T18:08:07.897Z,61.03
2023-02-08T18:10:37.097Z,60.88
2023-02-08T18:13:05.129Z,61.01
2023-02-08T18:15:34.932Z,60.92
2023-02-08T18:18:03.273Z,60.66
2023-02-08T18:20:31.830Z,61.22
2023-02-08T18:22:59.708Z,60.87
2023-02-08T18:25:27.703Z,60.62
2023-02-08T18:27:57.140Z,60.83
2023-02-08T18:30:26.182Z,60.97
2023-02-08T18:32:54.015Z,60.98
2023-02-08T18:35:22.466Z,61.59
2023-02-08T18:37:50.409Z,61.63
2023-02-08T18:40:19.232Z,61.91
2023-02-08T18:42:47.097Z,61.91
2023-02-08T18:45:16.394Z,62.40
2023-02-08T18:47:44.334Z,62.03
2023-02-08T18:50:12.435Z,62.77
2023-02-08T18:52:40.255Z,62.07
2023-02-08T18:55:08.545Z,62.61
2023-02-08T18:57:38.903Z,62.48
2023-02-08T19:00:07.687Z,63.01
2023-02-08T19:02:39.352Z,62.79
2023-02-08T19:05:07.943Z,62.71
2023-02-08T19:07:36.331Z,63.00
2023-02-08T19:10:04.811Z,63.35
2023-02-08T19:12:32.616Z,63.78
2023-02-08T19:15:00.476Z,63.44
2023-02-08T19:17:28.489Z,63.73
2023-02-08T19:19:59.576Z,64.23
2023-02-08T19:22:27.422Z,64.11
2023-02-08T19:24:55.870Z,64.46
2023-02-08T19:27:24.948Z,63.90
2023-02-08T19:29:56.249Z,64.15
2023-02-08T19:32:24.990Z,64.23
2023-02-08T19:34:52.859Z,64.00
2023-02-08T19:37:22.090Z,64.24
2023-02-08T19:39:51.273Z,65.05
2023-02-08T19:42:19.701Z,64.75
2023-02-08T19:44:48.225Z,64.35
2023-02-08T19:47:16.872Z,64.93
2023-02-08T19:49:44.893Z,64.74
2023-02-08T19:52:16.949Z,64.73
2023-02-08T19:54:47.048Z,65.11
2023-02-08T19:57:16.092Z,65.05
2023-02-08T19:59:44.631Z,65.32
2023-02-08T20:02:13.576Z,65.08
2023-02-08T20:04:42.291Z,65.71
2023-02-08T20:07:10.346Z,65.65
2023-02-08T20:09:38.545Z,65.94
2023-02-08T20:12:09.228Z,66.10
2023-02-08T20:14:38.118Z,66.29
2023-02-08T20:17:05.912Z,66.16
2023-02-08T20:19:37.020Z,65.69
2023-02-08T20:22:06.085Z,66.03
2023-02-08T20:24:34.623Z,65.96
2023-02-08T20:27:02.487Z,66.38
2023-02-08T20:29:31.723Z,66.32
2023-02-08T20:31:59.621Z,66.64
2023-02-08T20:34:27.725Z,66.74
2023-02-08T20:37:11.887Z,66.34
2023-02-08T20:39:41.545Z,67.10
2023-02-08T20:42:10.716Z,67.19
2023-02-08T20:44:41.337Z,67.09
2023-02-08T20:47:10.731Z,66.93
2023-02-08T20:49:40.212Z,66.67
2023-02-08T20:52:08.733Z,66.85
2023-02-08T20:54:37.069Z,67.37
2023-02-08T20:57:05.450Z,67.10
2023-02-08T20:59:33.795Z,67.10
2023-02-08T21:02:04.935Z,67.75
2023-02-08T21:04:32.882Z,67.42
2023-02-08T21:07:00.797Z,67.87
2023-02-08T21:09:29.036Z,68.35
2023-02-08T21:11:56.849Z,68.17
2023-02-08T21:14:25.355Z,67.75
2023-02-08T21:16:58.901Z,68.90
2023-02-08T21:19:31.146Z,69.40
2023-02-08T21:22:02.022Z,69.33
2023-02-08T21:24:30.907Z,69.67
2023-02-08T21:26:58.959Z,69.25
2023-02-08T21:29:29.341Z,70.84
2023-02-08T21:31:57.817Z,70.78
2023-02-08T21:34:26.729Z,70.08
2023-02-08T21:36:58.612Z,69.61
2023-02-08T21:39:28.415Z,70.51
2023-02-08T21:41:56.368Z,70.05
2023-02-08T21:44:24.284Z,70.94
2023-02-08T21:46:52.946Z,70.34
2023-02-08T21:49:39.414Z,71.24
2023-02-08T21:52:26.127Z,71.02
2023-02-08T21:54:54.064Z,71.58
2023-02-08T21:57:25.020Z,71.83
2023-02-08T21:59:55.769Z,71.12
2023-02-08T22:02:25.892Z,71.87
2023-02-08T22:04:55.142Z,72.11
2023-02-08T22:07:24.509Z,71.74
2023-02-08T22:09:54.998Z,72.00
2023-02-08T22:12:24.631Z,71.48
2023-02-08T22:14:52.517Z,72.73
2023-02-08T22:17:21.033Z,72.83
2023-02-08T22:19:48.865Z,72.81
2023-02-08T22:22:18.348Z,72.47
2023-02-08T22:24:50.120Z,72.64
2023-02-08T22:27:18.062Z,72.09
2023-02-08T22:29:46.692Z,72.34
2023-02-08T22:32:17.033Z,72.40
2023-02-08T22:34:46.440Z,72.33
2023-02-08T22:37:16.690Z,72.75
2023-02-08T22:39:46.229Z,72.87
2023-02-08T22:42:16.649Z,73.20
2023-02-08T22:44:46.726Z,72.87
2023-02-08T22:47:14.972Z,73.15
2023-02-08T22:49:44.368Z,73.30
2023-02-08T22:52:12.375Z,73.50
2023-02-08T22:54:41.452Z,73.33
2023-02-08T22:57:11.266Z,73.51
2023-02-08T22:59:41.200Z,73.95
2023-02-08T23:02:09.460Z,73.74
2023-02-08T23:04:38.194Z,73.92
2023-02-08T23:07:06.229Z,73.61
2023-02-08T23:09:34.167Z,74.03
2023-02-08T23:12:02.033Z,74.56
2023-02-08T23:14:29.917Z,74.41
2023-02-08T23:16:59.185Z,74.53
2023-02-08T23:19:27.167Z,74.59
2023-02-08T23:21:55.104Z,74.57
2023-02-08T23:24:22.976Z,75.43
2023-02-08T23:26:51.277Z,74.97
2023-02-08T23:29:19.146Z,75.43
2023-02-08T23:31:47.095Z,75.53
2023-02-08T23:34:16.486Z,75.68
2023-02-08T23:36:44.457Z,75.55
2023-02-08T23:39:12.294Z,75.45
2023-02-08T23:41:40.184Z,75.54
2023-02-08T23:44:08.170Z,75.25
2023-02-08T23:46:36.072Z,75.15
2023-02-08T23:49:04.135Z,75.99
2023-02-08T23:51:33.363Z,75.86
2023-02-08T23:54:01.246Z,75.77
2023-02-08T23:56:31.922Z,76.04
2023-02-08T23:59:00.624Z,75.74
